Time;durP1;ratioP1;P1;durP2;ratioP2;P2;SDS_P1;SDS_P2;PMS_P1;PMS_P2;Temp;Humidity;BMP_temperature;BMP_pressure;BME280_temperature;BME280_humidity;BME280_pressure;Samples;Min_cycle;Max_cycle;Signal;HPM_P1;HPM_P2
2023/04/04 00:00:30;;;;;;;5.65;0.75;;;;;;;2.15;77.98;102823.53;6276140;28;20453;-74
2023/04/04 00:03:31;;;;;;;1.88;0.70;;;;;;;2.10;78.04;102827.78;6275943;28;20444;-75
2023/04/04 00:06:34;;;;;;;2.03;0.50;;;;;;;2.05;78.59;102824.25;6275306;28;20044;-74
2023/04/04 00:09:36;;;;;;;1.08;0.65;;;;;;;1.98;78.44;102824.16;6275694;28;20057;-75
2023/04/04 00:12:37;;;;;;;0.52;0.52;;;;;;;1.95;78.67;102825.81;6275968;28;20045;-72
2023/04/04 00:15:39;;;;;;;0.73;0.63;;;;;;;1.95;80.01;102823.22;6275395;28;20045;-73
2023/04/04 00:18:40;;;;;;;1.98;0.70;;;;;;;1.93;79.77;102819.75;6275328;28;20041;-72
2023/04/04 00:21:43;;;;;;;1.38;0.70;;;;;;;1.89;79.04;102824.00;6275298;28;20048;-72
2023/04/04 00:24:45;;;;;;;2.42;0.50;;;;;;;1.90;80.41;102815.38;6275859;28;20041;-72
2023/04/04 00:27:47;;;;;;;0.82;0.70;;;;;;;1.85;79.01;102816.16;6275406;28;20041;-72
2023/04/04 00:30:49;;;;;;;0.80;0.52;;;;;;;1.83;79.20;102810.94;6275345;28;20388;-72
2023/04/04 00:33:50;;;;;;;3.00;0.77;;;;;;;1.82;80.15;102813.50;6274964;28;20049;-72
2023/04/04 00:36:53;;;;;;;1.20;0.55;;;;;;;1.77;77.83;102806.56;6275093;28;20364;-73
2023/04/04 00:39:55;;;;;;;0.95;0.50;;;;;;;1.82;79.57;102801.44;6275215;28;20132;-73
2023/04/04 00:42:58;;;;;;;0.50;0.50;;;;;;;1.76;78.81;102804.78;6274985;28;20049;-72
2023/04/04 00:46:00;;;;;;;1.35;0.80;;;;;;;1.80;78.87;102803.13;6275301;28;20063;-72
2023/04/04 00:49:01;;;;;;;1.15;0.77;;;;;;;1.74;78.62;102803.03;6275093;28;20132;-72
2023/04/04 00:52:05;;;;;;;0.65;0.55;;;;;;;1.61;78.08;102808.84;6275285;28;20049;-73
2023/04/04 00:55:08;;;;;;;0.77;0.68;;;;;;;1.53;78.73;102804.41;6275131;28;20079;-73
2023/04/04 00:58:10;;;;;;;2.65;0.70;;;;;;;1.55;79.23;102801.84;6274799;28;20132;-72
2023/04/04 01:01:12;;;;;;;0.35;0.35;;;;;;;1.53;79.39;102807.00;6274726;28;20041;-73
2023/04/04 01:04:14;;;;;;;0.90;0.47;;;;;;;1.49;80.16;102806.91;6275150;28;20044;-73
2023/04/04 01:07:17;;;;;;;0.82;0.80;;;;;;;1.46;80.24;102799.97;6274430;28;20491;-73
2023/04/04 01:10:18;;;;;;;6.55;0.70;;;;;;;1.48;80.09;102803.44;6274495;28;20041;-73
2023/04/04 01:13:20;;;;;;;1.65;0.65;;;;;;;1.47;79.95;102795.66;6275001;28;20048;-72
2023/04/04 01:16:22;;;;;;;1.05;0.77;;;;;;;1.38;79.09;102796.38;6274327;28;20053;-73
2023/04/04 01:19:30;;;;;;;6.63;0.65;;;;;;;1.32;79.99;102787.59;6279612;28;20459;-73
2023/04/04 01:22:34;;;;;;;1.80;1.13;;;;;;;1.33;81.17;102789.38;6279248;28;20183;-73
2023/04/04 01:25:37;;;;;;;2.42;0.98;;;;;;;1.38;81.63;102795.50;6279122;28;20047;-73
2023/04/04 01:28:39;;;;;;;1.95;0.75;;;;;;;1.32;80.08;102797.97;6279364;28;20060;-73
2023/04/04 01:31:47;;;;;;;1.50;0.80;;;;;;;1.37;82.14;102792.03;6279350;28;20045;-73
2023/04/04 01:34:56;;;;;;;1.20;0.77;;;;;;;1.44;81.80;102798.19;6271496;28;20053;-73
2023/04/04 01:38:13;;;;;;;1.00;0.60;;;;;;;1.41;81.02;102796.44;6279200;28;20049;-73
2023/04/04 01:41:19;;;;;;;3.78;1.25;;;;;;;1.38;80.85;102792.91;6278994;28;20045;-73
2023/04/04 01:44:21;;;;;;;6.13;0.75;;;;;;;1.39;81.57;102789.47;6279585;28;20103;-73
2023/04/04 01:47:23;;;;;;;2.10;0.77;;;;;;;1.36;81.52;102786.81;6278397;28;20041;-73
2023/04/04 01:50:25;;;;;;;1.15;0.60;;;;;;;1.35;81.12;102785.06;6279393;28;20044;-73
2023/04/04 01:53:26;;;;;;;3.20;0.93;;;;;;;1.33;81.54;102786.78;6279031;28;20041;-73
2023/04/04 01:56:29;;;;;;;1.08;0.73;;;;;;;1.31;81.42;102775.50;6278881;28;20059;-73
2023/04/04 01:59:30;;;;;;;3.47;1.00;;;;;;;1.29;81.83;102772.91;6278907;28;20049;-73
2023/04/04 02:02:32;;;;;;;1.08;0.60;;;;;;;1.34;81.67;102783.34;6278914;28;20049;-73
2023/04/04 02:05:33;;;;;;;3.00;0.60;;;;;;;1.26;80.59;102781.47;6278689;28;20045;-73
2023/04/04 02:08:35;;;;;;;0.70;0.70;;;;;;;1.18;81.05;102779.59;6278011;28;20072;-73
2023/04/04 02:11:37;;;;;;;1.65;0.80;;;;;;;1.07;81.81;102771.63;6276416;28;20426;-73
2023/04/04 02:14:39;;;;;;;1.17;0.70;;;;;;;1.12;82.28;102772.59;6276918;28;20361;-73
2023/04/04 02:17:41;;;;;;;1.08;0.63;;;;;;;1.10;82.39;102778.59;6276472;28;20056;-73
2023/04/04 02:20:43;;;;;;;1.65;0.68;;;;;;;1.09;83.09;102774.25;6276922;28;20049;-73
2023/04/04 02:23:44;;;;;;;2.80;0.80;;;;;;;1.02;83.65;102768.09;6277080;28;20052;-73
2023/04/04 02:26:47;;;;;;;0.70;0.70;;;;;;;0.95;84.38;102764.53;6276736;28;20049;-73
2023/04/04 02:29:48;;;;;;;1.27;0.70;;;;;;;0.96;83.82;102771.44;6268711;28;20049;-73
2023/04/04 02:32:49;;;;;;;2.47;1.50;;;;;;;0.92;84.68;102763.59;6276287;28;20330;-73
2023/04/04 02:35:51;;;;;;;5.55;1.98;;;;;;;0.95;84.90;102758.44;6276608;28;20063;-73
2023/04/04 02:38:52;;;;;;;0.73;0.40;;;;;;;0.90;84.45;102749.72;6276625;28;20056;-73
2023/04/04 02:41:55;;;;;;;1.38;0.68;;;;;;;0.87;85.78;102749.69;6276093;28;20054;-73
2023/04/04 02:44:57;;;;;;;1.50;0.77;;;;;;;0.87;86.32;102742.81;6274397;28;20437;-73
2023/04/04 02:47:58;;;;;;;4.47;1.00;;;;;;;0.91;86.45;102752.38;6276689;28;20048;-73
2023/04/04 02:51:00;;;;;;;0.90;0.50;;;;;;;0.93;86.79;102742.91;6276869;28;20048;-72
2023/04/04 02:54:02;;;;;;;1.23;0.80;;;;;;;0.94;87.19;102743.78;6275630;28;20053;-73
2023/04/04 02:57:04;;;;;;;0.68;0.63;;;;;;;0.98;86.46;102748.16;6276372;28;20345;-73
2023/04/04 03:00:08;;;;;;;1.30;0.80;;;;;;;0.92;86.42;102741.16;6275361;28;20045;-73
2023/04/04 03:03:09;;;;;;;2.20;0.70;;;;;;;0.82;86.76;102741.84;6276247;28;20147;-73
2023/04/04 03:06:13;;;;;;;1.75;0.80;;;;;;;0.80;88.26;102748.69;6275538;28;20052;-73
2023/04/04 03:09:15;;;;;;;1.83;1.43;;;;;;;0.84;88.23;102728.94;6233239;28;1024209;-73
2023/04/04 03:12:20;;;;;;;1.27;0.90;;;;;;;0.81;87.75;102739.22;6267861;28;20299;-73
2023/04/04 03:15:21;;;;;;;2.45;0.90;;;;;;;0.85;88.25;102738.44;6273416;28;20060;-73
2023/04/04 03:18:22;;;;;;;1.65;0.82;;;;;;;0.81;87.44;102731.44;6276841;28;20048;-73
2023/04/04 03:21:24;;;;;;;2.90;0.70;;;;;;;0.84;87.67;102731.50;6277077;28;20041;-73
2023/04/04 03:24:27;;;;;;;2.15;1.02;;;;;;;0.85;87.27;102735.84;6276450;28;20416;-73
2023/04/04 03:27:31;;;;;;;0.57;0.50;;;;;;;0.78;87.62;102734.88;6276906;28;20128;-73
2023/04/04 03:30:32;;;;;;;0.70;0.60;;;;;;;0.62;87.27;102727.63;6276995;28;20048;-73
2023/04/04 03:33:36;;;;;;;1.35;0.77;;;;;;;0.58;86.79;102729.28;6276587;28;20045;-73
2023/04/04 03:36:38;;;;;;;0.45;0.40;;;;;;;0.68;87.61;102723.47;6276580;28;20100;-73
2023/04/04 03:39:39;;;;;;;1.35;0.80;;;;;;;0.65;86.27;102728.56;6275678;28;20045;-73
2023/04/04 03:42:42;;;;;;;3.85;0.70;;;;;;;0.72;85.53;102735.59;6276362;28;20045;-73
2023/04/04 03:45:43;;;;;;;1.13;0.80;;;;;;;0.68;85.41;102726.06;6269965;28;20568;-73
2023/04/04 03:48:45;;;;;;;0.65;0.60;;;;;;;0.61;85.67;102723.31;6254925;28;20052;-73
2023/04/04 03:51:46;;;;;;;1.70;0.82;;;;;;;0.52;86.13;102723.13;6255944;28;20044;-73
2023/04/04 03:54:47;;;;;;;0.70;0.52;;;;;;;0.42;85.74;102732.41;6253532;28;20040;-73
2023/04/04 03:57:52;;;;;;;4.03;0.93;;;;;;;0.52;85.88;102725.72;6253897;28;20049;-73
2023/04/04 04:00:53;;;;;;;1.90;0.75;;;;;;;0.59;85.85;102722.38;6254465;28;20488;-73
2023/04/04 04:03:55;;;;;;;1.45;0.57;;;;;;;0.61;84.57;102726.75;6254104;28;20044;-73
2023/04/04 04:06:57;;;;;;;1.77;0.55;;;;;;;0.59;84.59;102723.28;6255394;28;20056;-73
2023/04/04 04:09:59;;;;;;;5.22;0.77;;;;;;;0.55;84.99;102712.84;6253222;28;20044;-73
2023/04/04 04:13:02;;;;;;;3.17;0.93;;;;;;;0.52;86.02;102717.97;6255549;28;20047;-73
2023/04/04 04:16:03;;;;;;;0.65;0.60;;;;;;;0.52;87.08;102717.97;6258689;28;20611;-73
2023/04/04 04:19:05;;;;;;;1.75;0.68;;;;;;;0.54;87.01;102711.94;6260261;28;20070;-73
2023/04/04 04:22:06;;;;;;;0.70;0.70;;;;;;;0.49;87.35;102716.16;6259147;28;20049;-73
2023/04/04 04:25:08;;;;;;;1.73;1.13;;;;;;;0.51;87.67;102714.50;6257623;28;20048;-73
2023/04/04 04:28:11;;;;;;;2.55;1.17;;;;;;;0.49;88.04;102713.59;6256459;28;20041;-73
2023/04/04 04:31:12;;;;;;;3.47;1.20;;;;;;;0.27;87.84;102703.66;6256425;28;20560;-73
2023/04/04 04:34:14;;;;;;;2.17;0.63;;;;;;;0.23;89.74;102701.00;6254819;28;20523;-73
2023/04/04 04:37:16;;;;;;;6.57;0.70;;;;;;;0.32;90.96;102710.69;6256164;28;20125;-74
2023/04/04 04:40:17;;;;;;;0.60;0.60;;;;;;;0.41;90.28;102702.19;6254060;28;20048;-73
2023/04/04 04:43:20;;;;;;;0.93;0.70;;;;;;;0.44;89.17;102710.91;6253039;28;20041;-73
2023/04/04 04:46:21;;;;;;;4.28;1.08;;;;;;;0.37;88.44;102711.63;6265411;28;20047;-73
2023/04/04 04:49:23;;;;;;;3.78;1.15;;;;;;;0.35;87.95;102712.44;6274915;28;20045;-72
2023/04/04 04:52:24;;;;;;;1.10;0.68;;;;;;;0.37;88.25;102719.41;6274993;28;20044;-73
2023/04/04 04:55:26;;;;;;;3.47;0.80;;;;;;;0.30;89.64;102720.09;6275270;28;20056;-73
2023/04/04 04:58:29;;;;;;;1.00;0.90;;;;;;;0.33;89.69;102727.94;6274637;28;20047;-73
2023/04/04 05:01:31;;;;;;;2.15;0.90;;;;;;;0.21;90.93;102718.19;6275036;28;20041;-73
2023/04/04 05:04:32;;;;;;;3.58;2.03;;;;;;;0.32;90.98;102718.44;6274954;28;20055;-73
2023/04/04 05:07:33;;;;;;;4.18;1.13;;;;;;;0.29;89.92;102717.50;6274792;28;20048;-73
2023/04/04 05:10:35;;;;;;;1.25;0.70;;;;;;;0.31;91.46;102716.66;6274540;28;20037;-73
2023/04/04 05:13:38;;;;;;;5.63;1.17;;;;;;;0.38;91.89;102728.91;6274640;28;20056;-73
2023/04/04 05:16:40;;;;;;;1.83;1.17;;;;;;;0.41;92.29;102721.22;6274662;28;20504;-73
2023/04/04 05:19:41;;;;;;;2.53;0.80;;;;;;;0.36;92.56;102719.34;6274263;28;20048;-73
2023/04/04 05:22:43;;;;;;;0.57;0.57;;;;;;;0.36;91.52;102721.94;6274850;28;20127;-73
2023/04/04 05:25:45;;;;;;;1.85;0.95;;;;;;;0.27;90.93;102726.91;6274509;28;20094;-72
2023/04/04 05:28:48;;;;;;;3.50;0.75;;;;;;;0.23;92.18;102732.03;6274791;28;20049;-73
2023/04/04 05:31:49;;;;;;;1.65;1.00;;;;;;;0.32;92.79;102736.53;6266554;28;20048;-73
2023/04/04 05:34:50;;;;;;;0.98;0.70;;;;;;;0.37;92.98;102740.09;6274773;28;20049;-72
2023/04/04 05:37:52;;;;;;;2.65;0.65;;;;;;;0.39;91.82;102738.38;6274419;28;20053;-73
2023/04/04 05:40:53;;;;;;;2.15;1.00;;;;;;;0.32;91.11;102746.88;6274813;28;20055;-73
2023/04/04 05:43:56;;;;;;;0.80;0.80;;;;;;;0.34;91.38;102744.31;6274096;28;20330;-73
2023/04/04 05:46:57;;;;;;;4.05;0.95;;;;;;;0.32;90.63;102756.31;6273891;28;20045;-72
2023/04/04 05:49:59;;;;;;;1.52;1.08;;;;;;;0.27;90.77;102751.06;6274421;28;20060;-73
2023/04/04 05:53:01;;;;;;;0.70;0.60;;;;;;;0.31;91.54;102759.75;6274365;28;20056;-72
2023/04/04 05:56:03;;;;;;;1.20;0.80;;;;;;;0.37;92.47;102750.44;6273939;28;20240;-72
2023/04/04 05:59:06;;;;;;;0.98;0.70;;;;;;;0.38;91.63;102752.16;6274153;28;20080;-73
2023/04/04 06:02:07;;;;;;;7.45;1.30;;;;;;;0.33;90.70;102743.44;6274329;28;20052;-72
2023/04/04 06:05:09;;;;;;;1.75;0.70;;;;;;;0.49;91.78;102749.78;6278364;28;20053;-72
2023/04/04 06:08:10;;;;;;;1.38;0.90;;;;;;;0.55;90.85;102749.94;6278660;28;20048;-72
2023/04/04 06:11:12;;;;;;;3.60;1.05;;;;;;;0.56;91.21;102751.69;6278671;28;20045;-75
2023/04/04 06:14:15;;;;;;;1.42;0.73;;;;;;;0.59;90.76;102753.44;6278741;28;20060;-74
2023/04/04 06:17:16;;;;;;;2.17;1.10;;;;;;;0.63;90.11;102747.47;6278258;28;20048;-74
2023/04/04 06:20:19;;;;;;;2.42;1.00;;;;;;;0.64;90.07;102744.94;6278393;28;20045;-75
2023/04/04 06:23:21;;;;;;;1.25;0.60;;;;;;;0.67;89.43;102760.50;6278225;28;20049;-75
2023/04/04 06:26:22;;;;;;;0.98;0.88;;;;;;;0.69;90.88;102751.09;6278138;28;20425;-74
2023/04/04 06:29:25;;;;;;;1.60;0.75;;;;;;;0.66;90.29;102751.00;6278300;28;20049;-74
2023/04/04 06:32:26;;;;;;;3.60;1.45;;;;;;;0.65;90.53;102756.16;6278066;28;20074;-74
2023/04/04 06:35:28;;;;;;;5.13;1.30;;;;;;;0.70;89.27;102750.22;6278206;28;20041;-75
2023/04/04 06:38:29;;;;;;;3.28;1.10;;;;;;;0.75;88.35;102755.50;6276831;28;20045;-74
2023/04/04 06:41:30;;;;;;;1.60;1.00;;;;;;;0.72;89.21;102760.59;6277760;28;20041;-74
2023/04/04 06:44:33;;;;;;;1.00;0.77;;;;;;;0.87;89.32;102760.91;6274442;28;20056;-74
2023/04/04 06:47:35;;;;;;;1.80;1.13;;;;;;;0.93;88.12;102760.16;6275611;28;20041;-74
2023/04/04 06:50:36;;;;;;;2.28;1.08;;;;;;;0.94;87.27;102760.16;6277659;28;20051;-74
2023/04/04 06:53:38;;;;;;;3.80;0.90;;;;;;;1.00;87.51;102760.31;6276616;28;20045;-74
2023/04/04 06:56:39;;;;;;;1.85;0.80;;;;;;;1.12;87.73;102761.38;6276689;28;20045;-74
2023/04/04 06:59:42;;;;;;;1.30;0.90;;;;;;;1.25;88.90;102768.50;6274796;28;20056;-74
2023/04/04 07:02:44;;;;;;;5.47;1.20;;;;;;;1.26;88.82;102765.94;6276351;28;20041;-74
2023/04/04 07:05:45;;;;;;;4.03;1.30;;;;;;;1.30;88.01;102760.81;6276030;28;20049;-74
2023/04/04 07:08:47;;;;;;;2.08;1.20;;;;;;;1.37;87.43;102767.88;6276351;28;20353;-75
2023/04/04 07:11:48;;;;;;;3.08;1.05;;;;;;;1.36;88.22;102768.69;6275591;28;20057;-74
2023/04/04 07:14:51;;;;;;;2.08;1.08;;;;;;;1.46;88.49;102771.47;6272200;28;20056;-75
2023/04/04 07:17:53;;;;;;;3.90;0.93;;;;;;;1.52;87.66;102761.22;6275567;28;20052;-74
2023/04/04 07:20:54;;;;;;;1.73;1.02;;;;;;;1.60;87.55;102763.94;6277012;28;20049;-74
2023/04/04 07:23:55;;;;;;;1.13;0.90;;;;;;;1.64;87.51;102757.09;6276366;28;20048;-74
2023/04/04 07:26:57;;;;;;;5.90;1.10;;;;;;;1.74;86.90;102753.78;6271925;28;20045;-73
2023/04/04 07:29:59;;;;;;;4.32;1.05;;;;;;;1.78;87.08;102750.41;6272349;28;20060;-73
2023/04/04 07:33:03;;;;;;;3.42;0.90;;;;;;;1.87;87.55;102753.13;6259413;28;20450;-73
2023/04/04 07:36:05;;;;;;;9.23;1.60;;;;;;;1.93;85.54;102748.00;6266809;28;20098;-73
2023/04/04 07:39:06;;;;;;;3.15;1.83;;;;;;;2.05;84.95;102747.34;6276470;28;20334;-73
2023/04/04 07:42:08;;;;;;;1.85;0.80;;;;;;;2.11;84.51;102756.91;6276062;28;20052;-76
2023/04/04 07:45:11;;;;;;;3.25;1.10;;;;;;;2.15;83.47;102756.13;6272204;28;20421;-77
2023/04/04 07:48:13;;;;;;;4.55;0.80;;;;;;;2.24;81.17;102759.69;6271606;28;20044;-70
2023/04/04 07:51:14;;;;;;;3.03;0.95;;;;;;;2.34;81.48;102757.22;6273225;28;20452;-69
2023/04/04 07:54:16;;;;;;;3.92;1.02;;;;;;;2.41;80.28;102757.34;6272355;28;20045;-73
2023/04/04 07:57:17;;;;;;;0.80;0.70;;;;;;;2.45;78.72;102760.81;6265938;28;20049;-73
2023/04/04 08:00:24;;;;;;;4.45;0.90;;;;;;;2.47;76.99;102756.53;6266728;28;20120;-72
2023/04/04 08:03:25;;;;;;;2.08;1.10;;;;;;;2.53;77.18;102757.47;6270077;28;20116;-73
2023/04/04 08:06:27;;;;;;;0.82;0.40;;;;;;;2.60;77.82;102758.44;6275287;28;20429;-72
2023/04/04 08:09:33;;;;;;;2.58;0.90;;;;;;;2.57;76.91;102755.78;6271547;28;20433;-74
2023/04/04 08:12:34;;;;;;;1.83;0.60;;;;;;;2.68;77.72;102759.41;6272843;28;20072;-73
2023/04/04 08:15:37;;;;;;;2.65;1.08;;;;;;;2.70;75.18;102754.22;6274080;28;20045;-73
2023/04/04 08:18:38;;;;;;;1.02;0.63;;;;;;;2.77;75.81;102753.41;6270094;28;20044;-73
2023/04/04 08:21:40;;;;;;;1.17;0.88;;;;;;;2.80;76.74;102758.66;6275294;28;20437;-73
2023/04/04 08:24:41;;;;;;;3.50;0.70;;;;;;;2.82;77.19;102756.97;6275065;28;20045;-72
2023/04/04 08:27:43;;;;;;;4.05;0.50;;;;;;;2.89;75.51;102752.69;6274925;28;20056;-75
2023/04/04 08:30:46;;;;;;;1.85;0.47;;;;;;;2.98;75.03;102747.59;6275270;28;20049;-74
2023/04/04 08:33:47;;;;;;;1.80;0.70;;;;;;;3.02;74.25;102749.38;6274349;28;20041;-73
2023/04/04 08:36:49;;;;;;;0.60;0.47;;;;;;;3.10;71.86;102744.25;6266724;28;20045;-74
2023/04/04 08:39:50;;;;;;;0.28;0.25;;;;;;;3.20;72.53;102735.69;6275330;28;20049;-73
2023/04/04 08:42:52;;;;;;;0.73;0.52;;;;;;;3.25;68.68;102731.41;6271486;28;20128;-74
2023/04/04 08:45:57;;;;;;;3.65;0.80;;;;;;;3.32;70.08;102733.22;6271476;28;20453;-73
2023/04/04 08:49:00;;;;;;;2.35;1.02;;;;;;;3.41;67.74;102727.22;6268515;28;20518;-74
2023/04/04 08:52:03;;;;;;;3.83;1.20;;;;;;;3.38;66.67;102725.44;6269452;28;20040;-74
2023/04/04 08:55:06;;;;;;;2.65;0.90;;;;;;;3.39;67.86;102722.00;6273040;28;20053;-73
2023/04/04 08:58:08;;;;;;;1.65;0.77;;;;;;;3.47;66.99;102724.66;6272153;28;20425;-74
2023/04/04 09:01:12;;;;;;;0.50;0.40;;;;;;;3.54;66.44;102719.53;6273698;28;20455;-74
2023/04/04 09:04:13;;;;;;;1.63;0.88;;;;;;;3.56;66.87;102728.19;6271488;28;20049;-73
2023/04/04 09:07:16;;;;;;;2.25;0.90;;;;;;;3.52;63.87;102716.03;6275514;28;20052;-74
2023/04/04 09:10:17;;;;;;;1.88;0.60;;;;;;;3.61;61.30;102723.03;6273810;28;20441;-73
2023/04/04 09:13:19;;;;;;;1.83;0.90;;;;;;;3.70;65.39;102714.44;6274170;28;20044;-75
2023/04/04 09:16:22;;;;;;;0.95;0.60;;;;;;;3.86;66.42;102718.88;6274462;28;20052;-73
2023/04/04 09:19:23;;;;;;;2.90;0.60;;;;;;;3.88;65.19;102717.16;6272721;28;20052;-73
2023/04/04 09:22:27;;;;;;;2.00;0.70;;;;;;;3.83;63.37;102715.38;6272969;28;20052;-73
2023/04/04 09:25:28;;;;;;;1.23;0.55;;;;;;;3.92;62.53;102726.72;6270339;28;20049;-73
2023/04/04 09:28:29;;;;;;;4.05;0.80;;;;;;;4.04;63.77;102713.78;6270956;28;20045;-73
2023/04/04 09:31:33;;;;;;;1.27;0.70;;;;;;;4.24;63.95;102710.41;6272684;28;20049;-74
2023/04/04 09:34:36;;;;;;;4.68;0.80;;;;;;;4.25;62.43;102715.59;6272554;28;20048;-74
2023/04/04 09:37:40;;;;;;;4.32;1.15;;;;;;;4.20;62.96;102711.25;6271349;28;20114;-74
2023/04/04 09:40:42;;;;;;;1.50;0.73;;;;;;;4.28;63.85;102715.63;6277099;28;20041;-74
2023/04/04 09:43:45;;;;;;;1.45;0.65;;;;;;;4.18;58.99;102711.25;6278125;28;20072;-73
2023/04/04 09:46:50;;;;;;;1.92;0.80;;;;;;;4.29;60.29;102708.69;6278095;28;20361;-73
2023/04/04 09:49:52;;;;;;;0.47;0.47;;;;;;;4.54;63.09;102715.75;6277970;28;20057;-74
2023/04/04 09:52:56;;;;;;;1.58;0.70;;;;;;;4.66;61.78;102706.22;6278870;28;20048;-74
2023/04/04 09:55:58;;;;;;;4.85;0.70;;;;;;;4.79;64.11;102708.84;6275749;28;20178;-73
2023/04/04 09:59:01;;;;;;;0.98;0.57;;;;;;;4.98;63.80;102706.28;6276299;28;20103;-73
2023/04/04 10:02:03;;;;;;;3.00;0.60;;;;;;;4.94;62.63;102702.78;6276740;28;20037;-74
2023/04/04 10:05:07;;;;;;;1.23;0.75;;;;;;;4.93;62.24;102692.38;6268930;28;20058;-73
2023/04/04 10:08:16;;;;;;;0.82;0.50;;;;;;;4.91;62.17;102701.94;6274804;28;20076;-73
2023/04/04 10:11:28;;;;;;;;;;;;;;;4.94;61.75;102692.38;6273958;28;20445;-74
2023/04/04 10:14:34;;;;;;;1.02;0.93;;;;;;;4.80;58.94;102687.13;6272084;28;20332;-74
2023/04/04 10:17:38;;;;;;;1.58;0.85;;;;;;;4.96;57.93;102698.47;6271164;28;20053;-74
2023/04/04 10:20:41;;;;;;;1.67;1.08;;;;;;;5.04;59.15;102691.53;6269491;28;20056;-73
2023/04/04 10:23:45;;;;;;;4.82;0.95;;;;;;;5.16;61.51;102684.56;6275731;28;20051;-75
2023/04/04 10:26:46;;;;;;;1.42;1.02;;;;;;;5.18;59.98;102683.72;6273732;28;20451;-74
2023/04/04 10:29:48;;;;;;;6.03;1.13;;;;;;;5.12;57.27;102678.50;6268028;28;20049;-74
2023/04/04 10:33:01;;;;;;;0.93;0.43;;;;;;;5.10;57.80;102677.63;6271823;28;20052;-74
2023/04/04 10:36:07;;;;;;;3.85;0.77;;;;;;;5.20;59.82;102674.16;6272338;28;20059;-74
2023/04/04 10:39:14;;;;;;;2.00;0.70;;;;;;;5.47;59.67;102680.22;6274498;28;20053;-74
2023/04/04 10:42:16;;;;;;;1.63;0.80;;;;;;;5.71;58.41;102676.69;6277433;28;20124;-74
2023/04/04 10:45:17;;;;;;;1.23;0.60;;;;;;;5.78;56.42;102673.22;6274750;28;20055;-74
2023/04/04 10:48:21;;;;;;;4.32;1.13;;;;;;;5.72;54.30;102666.28;6267215;28;20438;-75
2023/04/04 10:51:23;;;;;;;6.63;1.95;;;;;;;5.86;57.57;102671.47;6244064;28;20229;-72
2023/04/04 10:54:27;;;;;;;1.40;1.15;;;;;;;5.90;54.76;102677.53;6268134;28;20053;-73
2023/04/04 10:57:30;;;;;;;1.10;0.60;;;;;;;5.79;55.65;102668.00;6267859;28;20041;-74
2023/04/04 11:00:31;;;;;;;1.73;0.63;;;;;;;5.66;53.83;102661.06;6275771;28;20045;-74
2023/04/04 11:04:12;;;;;;;0.40;0.40;;;;;;;5.85;57.63;102656.66;6276115;28;20652;-74
2023/04/04 11:07:16;;;;;;;3.92;0.93;;;;;;;5.98;56.80;102650.56;6270686;28;20057;-75
2023/04/04 11:10:23;;;;;;;5.00;0.60;;;;;;;5.98;55.06;102645.34;6275573;28;20437;-74
2023/04/04 11:13:28;;;;;;;0.73;0.55;;;;;;;6.05;56.85;102643.59;6272422;28;20055;-74
2023/04/04 11:16:45;;;;;;;0.60;0.57;;;;;;;6.60;58.03;102643.31;6276767;28;20464;-74
2023/04/04 11:19:59;;;;;;;1.27;0.88;;;;;;;6.60;55.35;102635.47;6276931;28;20056;-74
2023/04/04 11:23:08;;;;;;;1.15;0.88;;;;;;;6.63;53.82;102635.44;6276732;28;20056;-74
2023/04/04 11:26:10;;;;;;;1.33;0.80;;;;;;;6.54;53.71;102635.50;6276638;28;20071;-74
2023/04/04 11:29:21;;;;;;;0.80;0.80;;;;;;;6.64;51.69;102618.91;6276933;28;20142;-76
2023/04/04 11:32:43;;;;;;;1.13;0.63;;;;;;;6.67;54.46;102624.09;6276257;28;20120;-75
2023/04/04 11:35:49;;;;;;;1.63;0.98;;;;;;;7.11;56.66;102625.50;6276731;28;20087;-74
2023/04/04 11:38:52;;;;;;;2.42;1.00;;;;;;;7.35;55.76;102624.41;6268512;28;20059;-75
2023/04/04 11:41:57;;;;;;;1.70;0.95;;;;;;;7.43;51.52;102604.28;6274475;28;20049;-75
2023/04/04 11:45:03;;;;;;;1.25;0.70;;;;;;;7.10;55.12;102610.69;6276147;28;20059;-75
2023/04/04 11:48:06;;;;;;;2.00;0.88;;;;;;;7.01;52.33;102609.03;6276031;28;20140;-74
2023/04/04 11:51:10;;;;;;;0.70;0.60;;;;;;;7.17;51.68;102612.34;6276170;28;20124;-75
2023/04/04 11:54:14;;;;;;;1.75;0.85;;;;;;;7.30;52.02;102605.28;6276321;28;20353;-75
2023/04/04 11:57:17;;;;;;;7.00;0.70;;;;;;;7.80;50.86;102609.97;6275625;28;20441;-75
2023/04/04 12:00:29;;;;;;;1.42;0.77;;;;;;;7.80;51.21;102601.25;6275740;28;20051;-75
2023/04/04 12:03:31;;;;;;;2.45;0.80;;;;;;;7.91;49.43;102602.00;6275848;28;20341;-75
2023/04/04 12:06:36;;;;;;;1.77;0.88;;;;;;;7.81;47.35;102595.13;6276157;28;20048;-75
2023/04/04 12:09:38;;;;;;;0.77;0.50;;;;;;;7.81;48.39;102598.63;6275217;28;20045;-75
2023/04/04 12:12:40;;;;;;;4.07;1.15;;;;;;;8.10;50.65;102587.78;6275894;28;20381;-73
2023/04/04 12:15:42;;;;;;;1.58;0.90;;;;;;;8.62;50.41;102586.16;6268014;28;20053;-73
2023/04/04 12:18:44;;;;;;;1.42;0.93;;;;;;;8.95;51.33;102581.25;6263162;28;20049;-73
2023/04/04 12:21:47;;;;;;;1.45;0.75;;;;;;;9.03;48.88;102575.00;6263858;28;20644;-73
2023/04/04 12:24:49;;;;;;;2.20;0.68;;;;;;;9.10;46.25;102567.91;6259974;28;20061;-73
2023/04/04 12:27:52;;;;;;;1.38;0.70;;;;;;;9.19;47.72;102561.63;6263288;28;20454;-74
2023/04/04 12:30:53;;;;;;;1.80;0.57;;;;;;;9.27;47.35;102564.97;6259405;28;20056;-74
2023/04/04 12:33:55;;;;;;;1.10;0.82;;;;;;;9.33;48.69;102557.84;6270500;28;20060;-74
2023/04/04 12:36:58;;;;;;;4.20;1.20;;;;;;;8.98;45.58;102560.25;6264258;28;20437;-73
2023/04/04 12:40:01;;;;;;;1.27;0.70;;;;;;;9.26;49.39;102557.97;6264289;28;20457;-73
2023/04/04 12:43:07;;;;;;;2.70;1.08;;;;;;;9.25;45.46;102546.63;6266137;28;20056;-73
2023/04/04 12:46:09;;;;;;;3.67;0.90;;;;;;;9.35;46.32;102537.69;6271887;28;20440;-74
2023/04/04 12:49:11;;;;;;;1.08;0.73;;;;;;;9.84;49.74;102522.69;6264593;28;20056;-74
2023/04/04 12:52:19;;;;;;;4.60;0.70;;;;;;;10.15;48.06;102520.25;6261874;28;20051;-74
2023/04/04 12:55:22;;;;;;;1.48;0.75;;;;;;;10.25;47.93;102515.66;6266167;28;20443;-73
2023/04/04 12:58:25;;;;;;;3.72;1.10;;;;;;;10.30;45.60;102513.78;6268371;28;20044;-73
2023/04/04 13:01:27;;;;;;;1.83;0.90;;;;;;;10.42;46.67;102500.38;6259699;28;20393;-74
2023/04/04 13:04:28;;;;;;;0.60;0.52;;;;;;;10.72;46.09;102504.00;6259574;28;20037;-74
2023/04/04 13:07:42;;;;;;;1.52;0.70;;;;;;;10.42;42.41;102497.72;6263856;28;20445;-74
2023/04/04 13:10:57;;;;;;;2.45;1.40;;;;;;;10.27;44.72;102495.50;6262872;28;20056;-74
2023/04/04 13:14:02;;;;;;;7.57;0.80;;;;;;;10.38;44.75;102494.31;6270912;28;20044;-74
2023/04/04 13:17:06;;;;;;;3.70;1.00;;;;;;;10.07;45.97;102486.25;6273213;28;20045;-74
2023/04/04 13:20:09;;;;;;;1.60;0.80;;;;;;;9.88;45.73;102493.69;6279902;28;20130;-75
2023/04/04 13:23:12;;;;;;;2.35;1.10;;;;;;;9.45;42.36;102492.88;6279613;28;20183;-74
2023/04/04 13:26:14;;;;;;;11.10;3.05;;;;;;;9.63;44.38;102489.91;6274180;28;20044;-74
2023/04/04 13:29:15;;;;;;;1.88;0.88;;;;;;;9.40;42.90;102477.22;6279442;28;20048;-74
2023/04/04 13:32:17;;;;;;;1.45;0.68;;;;;;;9.58;44.11;102473.34;6269057;28;20053;-74
2023/04/04 13:35:19;;;;;;;2.83;1.00;;;;;;;9.97;43.08;102468.13;6279287;28;20051;-74
2023/04/04 13:38:22;;;;;;;2.08;0.70;;;;;;;9.93;40.44;102463.84;6279344;28;20045;-73
2023/04/04 13:41:23;;;;;;;1.75;0.80;;;;;;;9.70;42.13;102462.59;6278078;28;20130;-75
2023/04/04 13:44:24;;;;;;;1.20;0.80;;;;;;;9.62;44.16;102457.50;6279120;28;20044;-75
2023/04/04 13:47:27;;;;;;;3.72;0.85;;;;;;;9.56;42.35;102455.03;6278764;28;20045;-75
2023/04/04 13:50:30;;;;;;;2.10;0.80;;;;;;;9.65;43.56;102451.34;6279304;28;20045;-74
2023/04/04 13:53:33;;;;;;;6.47;1.00;;;;;;;9.89;46.08;102445.53;6278912;28;20457;-74
2023/04/04 13:56:35;;;;;;;2.40;0.77;;;;;;;10.36;44.80;102433.06;6278819;28;20051;-75
2023/04/04 13:59:36;;;;;;;3.33;0.77;;;;;;;10.36;42.19;102433.06;6273524;28;20330;-74
2023/04/04 14:02:37;;;;;;;1.67;0.70;;;;;;;10.34;43.85;102429.59;6277986;28;20464;-75
2023/04/04 14:05:39;;;;;;;1.50;0.70;;;;;;;10.43;42.39;102428.50;6276943;28;20052;-74
2023/04/04 14:08:42;;;;;;;2.88;0.95;;;;;;;10.49;41.15;102428.34;6277456;28;20358;-75
2023/04/04 14:11:43;;;;;;;7.40;1.30;;;;;;;10.02;40.76;102425.09;6278764;28;20040;-75
2023/04/04 14:14:45;;;;;;;2.45;0.80;;;;;;;9.72;40.13;102417.94;6278335;28;20438;-76
2023/04/04 14:17:46;;;;;;;0.80;0.65;;;;;;;9.91;43.25;102414.00;6278432;28;20433;-75
2023/04/04 14:20:47;;;;;;;0.60;0.50;;;;;;;9.99;40.83;102412.06;6278315;28;20056;-75